Bryan's Hourly Summary for Wednesday, May 9, 2018
Hour Temp
(f)
RH
(%)
Solar Rad.
(MJ/m2)
Rainfall
(in)
Wind
(mph)
5/9/2018 12:00 AM 73 47 0 0 6.91
5/9/2018 1:00 AM 71 52 0 0 6.89
5/9/2018 2:00 AM 68 61 0 0 5.4
5/9/2018 3:00 AM 66 73 0 0 2.53
5/9/2018 4:00 AM 65 81 0 0 2.01
5/9/2018 5:00 AM 62 88 0 0 0
5/9/2018 6:00 AM 61 91 0 0 0
5/9/2018 7:00 AM 60 92 0.02 0 0.27
5/9/2018 8:00 AM 62 93 0.34 0 0.09
5/9/2018 9:00 AM 67 83 1.2 0 2.48
5/9/2018 10:00 AM 72 76 1.92 0 5.94
5/9/2018 11:00 AM 76 55 2.62 0 6.72
5/9/2018 12:00 PM 79 46 3.17 0 7.6
5/9/2018 1:00 PM 82 35 3.49 0 7.58
5/9/2018 2:00 PM 83 32 3.54 0 7.79
5/9/2018 3:00 PM 84 30 3.39 0 8.24
5/9/2018 4:00 PM 85 28 3.01 0 8.4
5/9/2018 5:00 PM 86 30 2.46 0 7.97
5/9/2018 6:00 PM 86 28 1.71 0 7.57
5/9/2018 7:00 PM 85 29 0.96 0 7.28
5/9/2018 8:00 PM 82 32 0.27 0 5.36
5/9/2018 9:00 PM 78 38 0.01 0 3.25
5/9/2018 10:00 PM 76 42 0 0 5.22
5/9/2018 11:00 PM 74 45 0 0 5.95
Data Summary 74 54 28.11 0.00 5.06